Pyriton, Alabama
Current Conditions -  °F | °C
As of 2:53 AM on Monday 22 Dec 2014 (Local Time) from KANB Reporting Station
Overcast Overcast  
Wind Chill: 46°   Ceiling: 900
Heat Index: 49°   Visibility: 8mi
Dew Point: 46°   Wind: 7mph
Humidity: 90%   Direction: 70°ENE
Pressure: 30"   Gusts: NA
Location:  33.3533°N, 85.7343°W
Report Text: KANB 220853Z AUTO 07006KT 8SM OVC009 09/08 A3000 RMK AO2 CIG 006V013 SLP161 T00940078 56017
Loading
Personal Weather Stations






























Interactive Weather Map New forecast layout! Learn more

10-Day Weather Forecast

Advertisements
Track Severe Weather on mobile